createdAt,value
2018-12-06T00:01:28.661Z,13.00
2018-12-06T00:07:32.137Z,13.88
2018-12-06T00:13:35.599Z,11.43
2018-12-06T00:19:39.110Z,11.95
2018-12-06T00:25:42.609Z,12.28
2018-12-06T00:31:46.164Z,15.38
2018-12-06T00:37:49.666Z,13.00
2018-12-06T00:43:53.205Z,15.45
2018-12-06T00:49:56.679Z,11.55
2018-12-06T00:56:00.113Z,12.07
2018-12-06T01:02:05.607Z,14.45
2018-12-06T01:08:09.183Z,12.60
2018-12-06T01:14:12.703Z,11.95
2018-12-06T01:20:16.281Z,13.13
2018-12-06T01:26:19.738Z,14.83
2018-12-06T01:32:23.218Z,14.87
2018-12-06T01:38:26.710Z,15.98
2018-12-06T01:44:30.176Z,15.88
2018-12-06T01:50:33.646Z,7.78
2018-12-06T01:56:37.248Z,13.95
2018-12-06T02:02:40.710Z,10.88
2018-12-06T02:08:44.207Z,12.15
2018-12-06T02:14:47.647Z,12.68
2018-12-06T02:20:51.089Z,9.60
2018-12-06T02:26:54.533Z,19.10
2018-12-06T02:32:57.966Z,15.65
2018-12-06T02:39:01.411Z,15.65
2018-12-06T02:45:05.201Z,12.05
2018-12-06T02:51:08.663Z,18.30
2018-12-06T02:57:12.109Z,20.85
2018-12-06T03:03:15.574Z,16.07
2018-12-06T03:09:19.016Z,14.90
2018-12-06T03:15:22.488Z,17.05
2018-12-06T03:21:25.976Z,15.55
2018-12-06T03:27:29.656Z,16.70
2018-12-06T03:33:33.122Z,14.23
2018-12-06T03:39:36.579Z,13.25
2018-12-06T03:45:40.064Z,18.98
2018-12-06T03:51:43.515Z,13.83
2018-12-06T03:57:46.975Z,16.93
2018-12-06T04:03:50.493Z,15.00
2018-12-06T04:09:53.941Z,17.37
2018-12-06T04:15:57.447Z,15.72
2018-12-06T04:22:00.903Z,19.10
2018-12-06T04:28:04.427Z,15.30
2018-12-06T04:34:08.515Z,11.08
2018-12-06T04:40:11.978Z,11.78
2018-12-06T04:46:15.452Z,13.83
2018-12-06T04:52:18.933Z,15.55
2018-12-06T04:58:22.498Z,11.60
2018-12-06T05:04:25.981Z,11.25
2018-12-06T05:10:29.472Z,11.33
2018-12-06T05:16:33.017Z,10.75
2018-12-06T05:22:36.519Z,11.93
2018-12-06T05:28:40.031Z,15.25
2018-12-06T05:34:43.772Z,13.13
2018-12-06T05:40:47.270Z,13.38
2018-12-06T05:46:50.742Z,13.70
2018-12-06T05:52:54.205Z,12.53
2018-12-06T05:58:57.692Z,15.68
2018-12-06T06:05:01.148Z,18.98
2018-12-06T06:11:04.633Z,13.80
2018-12-06T06:17:08.204Z,16.37
2018-12-06T06:23:11.720Z,15.40
2018-12-06T06:29:15.251Z,20.88
2018-12-06T06:35:18.704Z,17.00
2018-12-06T06:41:22.361Z,15.80
2018-12-06T06:47:25.953Z,20.25
2018-12-06T06:53:29.429Z,13.83
2018-12-06T06:59:32.892Z,15.68
2018-12-06T07:05:36.376Z,18.15
2018-12-06T07:11:39.847Z,20.43
2018-12-06T07:17:43.304Z,16.95
2018-12-06T07:23:46.767Z,18.20
2018-12-06T07:29:50.280Z,19.30
2018-12-06T07:35:53.713Z,16.42
2018-12-06T07:41:57.181Z,17.67
2018-12-06T07:48:00.899Z,18.52
2018-12-06T07:54:04.629Z,22.25
2018-12-06T08:00:09.491Z,17.23
2018-12-06T08:06:13.054Z,16.45
2018-12-06T08:12:16.507Z,16.90
2018-12-06T08:18:20.025Z,15.48
2018-12-06T08:24:24.141Z,17.60
2018-12-06T08:30:27.606Z,14.95
2018-12-06T08:36:31.093Z,19.75
2018-12-06T08:42:35.437Z,18.00
2018-12-06T08:48:40.054Z,13.22
2018-12-06T08:54:43.642Z,16.93
2018-12-06T09:00:47.122Z,14.15
2018-12-06T09:06:50.897Z,17.23
2018-12-06T09:12:54.405Z,15.08
2018-12-06T09:18:57.862Z,15.95
2018-12-06T09:25:01.337Z,14.98
2018-12-06T09:31:05.839Z,18.05
2018-12-06T09:37:09.336Z,17.77
2018-12-06T09:43:13.392Z,17.50
2018-12-06T09:49:16.861Z,18.25
2018-12-06T09:55:20.449Z,12.00
2018-12-06T10:01:24.331Z,19.57
2018-12-06T10:07:27.808Z,19.85
2018-12-06T10:13:31.269Z,21.73
2018-12-06T10:19:34.738Z,16.00
2018-12-06T10:25:38.190Z,20.35
2018-12-06T10:31:41.648Z,15.28
2018-12-06T10:37:45.108Z,18.15
2018-12-06T10:43:48.562Z,17.40
2018-12-06T10:49:52.037Z,13.08
2018-12-06T10:55:55.519Z,16.32
2018-12-06T11:02:06.522Z,18.30
2018-12-06T11:08:10.205Z,22.27
2018-12-06T11:14:13.688Z,12.80
2018-12-06T11:20:17.133Z,12.28
2018-12-06T11:26:20.593Z,14.78
2018-12-06T11:32:24.126Z,12.37
2018-12-06T11:38:27.685Z,15.70
2018-12-06T11:44:31.915Z,10.58
2018-12-06T11:50:35.408Z,8.00
2018-12-06T11:56:38.886Z,6.60
2018-12-06T12:02:42.731Z,6.75
2018-12-06T12:08:46.247Z,6.17
2018-12-06T12:14:51.031Z,5.87
2018-12-06T12:20:54.592Z,4.62
2018-12-06T12:26:58.062Z,3.90
2018-12-06T12:33:01.521Z,3.70
2018-12-06T12:39:08.257Z,3.52
2018-12-06T12:45:11.897Z,3.02
2018-12-06T12:51:15.457Z,4.37
2018-12-06T12:57:19.047Z,2.62
2018-12-06T13:03:22.843Z,3.37
2018-12-06T13:09:26.407Z,2.08
2018-12-06T13:15:30.006Z,2.65
2018-12-06T13:21:33.477Z,3.02
2018-12-06T13:27:36.947Z,2.25
2018-12-06T13:33:40.480Z,1.72
2018-12-06T13:39:44.048Z,1.50
2018-12-06T13:45:47.514Z,2.20
2018-12-06T13:51:50.994Z,2.47
2018-12-06T13:57:54.482Z,1.45
2018-12-06T14:03:57.962Z,1.80
2018-12-06T14:10:01.656Z,1.37
2018-12-06T14:16:10.213Z,2.02
2018-12-06T14:22:11.050Z,2.02
2018-12-06T14:28:14.541Z,1.62
2018-12-06T14:34:18.009Z,1.00
2018-12-06T14:40:21.494Z,1.20
2018-12-06T14:46:25.444Z,1.30
2018-12-06T14:52:29.056Z,0.82
2018-12-06T14:58:32.645Z,0.78
2018-12-06T15:04:36.170Z,1.10
2018-12-06T15:10:39.702Z,0.93
2018-12-06T15:16:43.385Z,1.00
2018-12-06T15:22:46.827Z,1.60
2018-12-06T15:28:50.272Z,1.30
2018-12-06T15:34:53.780Z,2.37
2018-12-06T15:40:57.259Z,3.02
2018-12-06T15:47:00.878Z,1.27
2018-12-06T15:53:04.458Z,2.72
2018-12-06T15:59:07.920Z,2.65
2018-12-06T16:05:11.361Z,4.10
2018-12-06T16:11:14.828Z,3.47
2018-12-06T16:17:18.309Z,3.08
2018-12-06T16:23:21.824Z,2.62
2018-12-06T16:29:25.359Z,2.55
2018-12-06T16:35:28.850Z,2.42
2018-12-06T16:41:32.511Z,2.15
2018-12-06T16:47:35.999Z,2.72
2018-12-06T16:53:39.563Z,3.45
2018-12-06T16:59:43.109Z,3.50
2018-12-06T17:06:16.160Z,4.40
2018-12-06T17:12:19.668Z,3.12
2018-12-06T17:18:23.148Z,5.42
2018-12-06T17:24:26.652Z,3.92
2018-12-06T17:30:30.101Z,4.03
2018-12-06T17:36:33.694Z,3.40
2018-12-06T17:42:37.666Z,4.95
2018-12-06T17:48:41.147Z,6.35
2018-12-06T17:54:44.632Z,6.12
2018-12-06T18:00:48.330Z,5.75
2018-12-06T18:06:51.896Z,7.65
2018-12-06T18:12:55.387Z,4.95
2018-12-06T18:18:58.838Z,7.97
2018-12-06T18:25:02.436Z,9.73
2018-12-06T18:31:06.049Z,14.70
2018-12-06T18:37:09.513Z,15.68
2018-12-06T18:43:12.971Z,15.63
2018-12-06T18:49:16.471Z,15.70
2018-12-06T18:55:20.141Z,8.30
2018-12-06T19:01:23.615Z,7.45
2018-12-06T19:07:27.144Z,11.08
2018-12-06T19:13:30.761Z,11.43
2018-12-06T19:19:34.279Z,12.85
2018-12-06T19:25:37.789Z,12.40
2018-12-06T19:31:41.553Z,11.73
2018-12-06T19:37:45.130Z,18.92
2018-12-06T19:43:48.695Z,15.83
2018-12-06T19:49:52.187Z,15.78
2018-12-06T19:55:55.763Z,18.77
2018-12-06T20:01:59.237Z,21.42
2018-12-06T20:08:02.849Z,17.35
2018-12-06T20:14:06.315Z,12.40
2018-12-06T20:20:09.867Z,17.42
2018-12-06T20:26:13.608Z,18.65
2018-12-06T20:32:17.213Z,11.73
2018-12-06T20:38:20.705Z,16.57
2018-12-06T20:44:24.171Z,10.45
2018-12-06T20:50:27.622Z,16.97
2018-12-06T20:56:31.103Z,13.08
2018-12-06T21:02:35.064Z,9.50
2018-12-06T21:08:38.761Z,8.45
2018-12-06T21:14:42.397Z,8.75
2018-12-06T21:20:45.906Z,12.60
2018-12-06T21:26:49.556Z,8.48
2018-12-06T21:32:53.874Z,8.15
2018-12-06T21:38:57.455Z,9.65
2018-12-06T21:45:01.092Z,6.53
2018-12-06T21:51:04.672Z,7.20
2018-12-06T21:57:08.203Z,5.20
2018-12-06T22:03:11.810Z,5.58
2018-12-06T22:09:15.343Z,8.05
2018-12-06T22:15:19.023Z,5.50
2018-12-06T22:21:22.499Z,6.70
2018-12-06T22:27:26.003Z,4.28
2018-12-06T22:33:29.464Z,6.28
2018-12-06T22:39:32.903Z,6.03
2018-12-06T22:46:06.980Z,5.85
2018-12-06T22:52:10.477Z,5.90
2018-12-06T22:58:13.951Z,3.30
2018-12-06T23:04:17.468Z,3.65
2018-12-06T23:10:20.937Z,2.47
2018-12-06T23:16:24.615Z,3.77
2018-12-06T23:22:28.082Z,2.90
2018-12-06T23:28:31.530Z,4.20
2018-12-06T23:34:35.231Z,3.75
2018-12-06T23:40:38.819Z,6.62
2018-12-06T23:46:42.440Z,2.85
2018-12-06T23:52:46.024Z,5.72
2018-12-06T23:58:49.515Z,4.45
